Time;durP1;ratioP1;P1;durP2;ratioP2;P2;SDS_P1;SDS_P2;PMS_P1;PMS_P2;Temp;Humidity;BMP_temperature;BMP_pressure;BME280_temperature;BME280_humidity;BME280_pressure;Samples;Min_cycle;Max_cycle;Signal;HPM_P1;HPM_P2
2023/07/26 00:02:12;;;;;;;1.00;1.00;;;;;;;25.68;55.11;96843.72;5082643;28;20311;-28
2023/07/26 00:04:39;;;;;;;1.30;0.90;;;;;;;25.67;55.27;96840.31;5078797;28;20848;-27
2023/07/26 00:07:06;;;;;;;1.20;1.10;;;;;;;25.68;54.81;96854.91;5060784;28;20243;-27
2023/07/26 00:09:32;;;;;;;0.90;0.90;;;;;;;25.67;54.90;96855.75;5071112;28;20201;-27
2023/07/26 00:11:59;;;;;;;1.00;1.00;;;;;;;25.67;55.16;96860.03;5079462;28;20219;-27
2023/07/26 00:14:25;;;;;;;0.80;0.80;;;;;;;25.67;55.07;96857.47;5082055;28;20216;-27
2023/07/26 00:16:52;;;;;;;1.10;1.00;;;;;;;25.67;55.39;96860.91;5073696;28;20273;-27
2023/07/26 00:19:19;;;;;;;1.07;1.00;;;;;;;25.66;55.31;96874.63;5080182;28;20626;-27
2023/07/26 00:21:46;;;;;;;0.90;0.90;;;;;;;25.65;55.24;96878.06;5068612;28;20204;-27
2023/07/26 00:24:13;;;;;;;1.00;1.00;;;;;;;25.67;55.19;96881.50;5066636;28;20565;-27
2023/07/26 00:26:40;;;;;;;1.10;1.00;;;;;;;25.67;55.37;96883.19;5079228;28;20223;-28
2023/07/26 00:29:06;;;;;;;1.03;0.97;;;;;;;25.67;55.06;96893.50;5079628;28;20200;-27
2023/07/26 00:31:33;;;;;;;1.80;1.03;;;;;;;25.63;55.09;96891.75;5071739;28;20601;-27
2023/07/26 00:34:00;;;;;;;1.20;1.10;;;;;;;25.68;55.12;96902.94;5074951;28;20659;-29
2023/07/26 00:36:26;;;;;;;0.90;0.90;;;;;;;25.66;55.13;96902.06;5079728;28;20227;-27
2023/07/26 00:38:53;;;;;;;0.90;0.90;;;;;;;25.67;54.93;96902.09;5088374;28;20250;-36
2023/07/26 00:41:19;;;;;;;0.93;0.93;;;;;;;25.67;55.30;96906.38;5080422;28;20253;-28
2023/07/26 00:43:46;;;;;;;1.30;1.20;;;;;;;25.66;55.22;96899.47;5083768;28;20211;-27
2023/07/26 00:46:13;;;;;;;1.20;1.10;;;;;;;25.65;55.43;96901.22;5080845;28;20227;-27
2023/07/26 00:48:39;;;;;;;1.00;1.00;;;;;;;25.62;55.23;96896.06;5080775;28;20659;-32
2023/07/26 00:51:06;;;;;;;0.80;0.80;;;;;;;25.65;54.94;96900.34;5080877;28;20215;-27
2023/07/26 00:53:33;;;;;;;0.97;0.97;;;;;;;25.67;55.48;96914.09;5085488;28;20199;-27
2023/07/26 00:55:59;;;;;;;0.80;0.80;;;;;;;25.67;55.18;96901.22;5081684;28;20674;-27
2023/07/26 00:58:26;;;;;;;0.85;0.85;;;;;;;25.66;55.18;96910.66;5083413;28;20216;-27
2023/07/26 01:00:52;;;;;;;1.23;1.00;;;;;;;25.53;55.23;96880.59;5077355;28;20195;-27
2023/07/26 01:03:19;;;;;;;1.13;1.05;;;;;;;25.65;55.16;96910.63;5062567;28;20202;-27
2023/07/26 01:06:01;;;;;;;1.10;1.00;;;;;;;25.66;55.24;96918.38;5077145;28;20219;-27
2023/07/26 01:08:42;;;;;;;1.23;1.13;;;;;;;25.66;55.21;96917.50;5080381;28;20200;-27
2023/07/26 01:11:21;;;;;;;1.07;0.97;;;;;;;25.66;55.40;96920.06;5084322;28;20215;-27
2023/07/26 01:14:01;;;;;;;0.90;0.90;;;;;;;25.66;55.24;96925.22;5074725;28;20208;-27
2023/07/26 01:16:27;;;;;;;0.90;0.90;;;;;;;25.65;55.25;96921.81;5086829;28;20223;-27
2023/07/26 01:18:54;;;;;;;1.70;1.00;;;;;;;25.66;55.42;96920.06;5086378;28;20196;-27
2023/07/26 01:21:21;;;;;;;0.97;0.97;;;;;;;25.66;55.27;96927.78;5095503;28;20203;-27
2023/07/26 01:23:47;;;;;;;1.10;1.00;;;;;;;25.58;55.25;96914.06;5074613;28;20564;-27
2023/07/26 01:26:14;;;;;;;0.80;0.80;;;;;;;25.65;55.34;96924.38;5076269;28;20257;-36
2023/07/26 01:28:41;;;;;;;0.87;0.87;;;;;;;25.64;55.17;96926.94;5085596;28;20196;-32
2023/07/26 01:31:07;;;;;;;1.13;1.03;;;;;;;25.62;55.44;96934.66;5077533;28;20702;-27
2023/07/26 01:33:34;;;;;;;1.07;1.07;;;;;;;25.64;55.19;96938.06;5078540;28;20557;-27
2023/07/26 01:36:00;;;;;;;1.23;1.13;;;;;;;25.65;55.48;96937.25;5049223;28;20274;-28
2023/07/26 01:38:27;;;;;;;1.00;1.00;;;;;;;25.65;55.32;96938.94;5083392;28;20203;-27
2023/07/26 01:40:54;;;;;;;0.87;0.87;;;;;;;25.64;55.27;96948.38;5074185;28;20620;-36
2023/07/26 01:43:20;;;;;;;0.70;0.70;;;;;;;25.64;55.45;96943.22;5076939;28;20192;-27
2023/07/26 01:45:47;;;;;;;0.90;0.90;;;;;;;25.63;55.44;96943.22;5076972;28;20698;-27
2023/07/26 01:48:13;;;;;;;0.90;0.90;;;;;;;25.65;55.37;96955.25;5083632;28;20231;-27
2023/07/26 01:50:40;;;;;;;0.93;0.93;;;;;;;25.65;55.57;96955.25;5077697;28;20233;-27
2023/07/26 01:53:07;;;;;;;0.93;0.93;;;;;;;25.65;55.55;96946.66;5082027;28;20202;-27
2023/07/26 01:55:33;;;;;;;0.80;0.80;;;;;;;25.64;55.31;96945.81;5081740;28;20251;-27
2023/07/26 01:58:00;;;;;;;0.80;0.80;;;;;;;25.64;55.43;96950.94;5082479;28;20201;-27
2023/07/26 02:00:26;;;;;;;1.00;1.00;;;;;;;25.65;55.55;96957.84;5074658;28;20283;-27
2023/07/26 02:02:53;;;;;;;0.82;0.82;;;;;;;25.65;55.27;96956.97;5084454;28;20243;-27
2023/07/26 02:05:20;;;;;;;0.90;0.80;;;;;;;25.65;55.47;96967.25;5082083;28;20291;-28
2023/07/26 02:07:46;;;;;;;1.00;1.00;;;;;;;25.64;55.56;96962.97;5069890;28;20197;-33
2023/07/26 02:10:13;;;;;;;1.07;1.00;;;;;;;25.65;55.59;96962.09;5072589;28;20733;-27
2023/07/26 02:12:40;;;;;;;1.00;1.00;;;;;;;25.64;55.35;96961.25;5073806;28;20274;-27
2023/07/26 02:15:06;;;;;;;1.00;1.00;;;;;;;25.65;55.73;96968.13;5072622;28;20200;-27
2023/07/26 02:17:33;;;;;;;1.00;1.00;;;;;;;25.59;55.40;96956.94;5067385;28;20640;-27
2023/07/26 02:20:01;;;;;;;0.90;0.90;;;;;;;25.65;55.27;96968.13;5080778;28;20196;-27
2023/07/26 02:22:28;;;;;;;1.00;1.00;;;;;;;25.64;55.40;96971.53;5075385;28;20192;-27
2023/07/26 02:24:54;;;;;;;1.00;0.90;;;;;;;25.63;55.27;96972.41;5073068;28;20253;-27
2023/07/26 02:27:21;;;;;;;0.90;0.90;;;;;;;25.63;55.66;96974.97;5076293;28;20358;-27
2023/07/26 02:29:47;;;;;;;0.90;0.90;;;;;;;25.62;55.77;96960.41;5079357;28;20252;-27
2023/07/26 02:32:14;;;;;;;0.97;0.97;;;;;;;25.63;55.59;96974.09;5071120;28;20216;-27
2023/07/26 02:34:41;;;;;;;0.90;0.90;;;;;;;25.62;55.81;96972.38;5078454;28;20192;-28
2023/07/26 02:37:07;;;;;;;1.00;1.00;;;;;;;25.61;55.62;96974.09;5075194;28;20237;-27
2023/07/26 02:39:34;;;;;;;0.80;0.80;;;;;;;25.62;55.24;96973.25;5080943;28;20196;-27
2023/07/26 02:42:01;;;;;;;0.70;0.70;;;;;;;25.63;55.36;96968.94;5070993;28;20203;-27
2023/07/26 02:44:27;;;;;;;0.80;0.80;;;;;;;25.64;55.43;96973.28;5070722;28;20193;-27
2023/07/26 02:46:54;;;;;;;0.90;0.90;;;;;;;25.63;55.65;96974.09;5075550;28;20373;-28
2023/07/26 02:49:20;;;;;;;0.83;0.83;;;;;;;25.63;55.65;96971.53;5078758;28;20251;-27
2023/07/26 02:51:47;;;;;;;1.00;1.00;;;;;;;25.63;55.53;96974.97;5072548;28;20577;-27
2023/07/26 02:54:14;;;;;;;0.87;0.87;;;;;;;25.64;55.32;96981.81;5086955;28;20201;-27
2023/07/26 02:56:40;;;;;;;0.80;0.80;;;;;;;25.59;55.33;96980.09;5078602;28;20585;-27
2023/07/26 02:59:07;;;;;;;0.90;0.90;;;;;;;25.65;55.59;96995.56;5075668;28;20418;-27
2023/07/26 03:01:33;;;;;;;0.73;0.73;;;;;;;25.63;55.24;96995.56;5070451;28;20195;-27
2023/07/26 03:04:00;;;;;;;0.77;0.77;;;;;;;25.64;55.64;96999.84;5061270;28;20627;-27
2023/07/26 03:06:27;;;;;;;1.17;1.07;;;;;;;25.61;55.75;97004.97;5066363;28;20240;-27
2023/07/26 03:08:54;;;;;;;0.90;0.90;;;;;;;25.63;55.43;97004.97;5071668;28;20197;-31
2023/07/26 03:11:20;;;;;;;1.10;1.00;;;;;;;25.62;55.40;97003.28;5069947;28;20216;-27
2023/07/26 03:13:47;;;;;;;0.93;0.90;;;;;;;25.62;55.40;97013.56;5073301;28;20236;-27
2023/07/26 03:16:17;;;;;;;2.70;0.83;;;;;;;25.61;55.49;97009.28;5071441;28;20220;-27
2023/07/26 03:18:43;;;;;;;0.93;0.90;;;;;;;25.61;55.44;97014.44;5077335;28;20290;-27
2023/07/26 03:21:10;;;;;;;0.80;0.80;;;;;;;25.57;55.33;97010.09;5057595;28;20201;-29
2023/07/26 03:23:37;;;;;;;0.90;0.90;;;;;;;25.58;55.35;97017.81;5062392;28;20623;-27
2023/07/26 03:26:04;;;;;;;0.90;0.90;;;;;;;25.54;55.46;97008.38;5069089;28;20600;-27
2023/07/26 03:28:30;;;;;;;0.90;0.90;;;;;;;25.60;55.61;97022.97;5077240;28;20258;-27
2023/07/26 03:30:57;;;;;;;0.90;0.90;;;;;;;25.60;55.58;97028.13;5061561;28;20243;-27
2023/07/26 03:33:23;;;;;;;0.70;0.70;;;;;;;25.59;55.48;97027.28;5062004;28;20258;-27
2023/07/26 03:35:50;;;;;;;0.80;0.80;;;;;;;25.57;55.50;97020.38;5069358;28;20775;-27
2023/07/26 03:38:17;;;;;;;0.90;0.90;;;;;;;25.58;55.81;97035.00;5062118;28;20259;-27
2023/07/26 03:40:43;;;;;;;0.70;0.70;;;;;;;25.56;55.75;97029.84;5078339;28;20196;-27
2023/07/26 03:43:10;;;;;;;1.07;1.07;;;;;;;25.56;55.80;97037.56;5057508;28;20641;-27
2023/07/26 03:45:36;;;;;;;0.80;0.80;;;;;;;25.55;55.58;97033.25;5067989;28;20220;-27
2023/07/26 03:48:03;;;;;;;0.80;0.80;;;;;;;25.54;55.34;97038.38;5064125;28;20278;-27
2023/07/26 03:50:31;;;;;;;0.90;0.90;;;;;;;25.55;55.55;97032.41;5069838;28;20204;-27
2023/07/26 03:52:58;;;;;;;0.80;0.80;;;;;;;25.50;55.60;97034.97;5062495;28;20761;-27
2023/07/26 03:55:24;;;;;;;0.80;0.80;;;;;;;25.55;56.07;97037.56;5071117;28;20223;-27
2023/07/26 03:57:51;;;;;;;0.77;0.77;;;;;;;25.55;56.04;97042.72;5071043;28;20662;-27
2023/07/26 04:00:17;;;;;;;1.00;1.00;;;;;;;25.54;56.03;97038.38;5066249;28;20204;-27
2023/07/26 04:02:44;;;;;;;0.90;0.90;;;;;;;25.55;55.98;97043.53;5068301;28;20200;-36
2023/07/26 04:05:11;;;;;;;1.00;1.00;;;;;;;25.55;56.00;97043.53;5058813;28;20204;-27
2023/07/26 04:07:41;;;;;;;0.80;0.80;;;;;;;25.57;56.17;97051.28;5059476;28;20659;-32
2023/07/26 04:10:07;;;;;;;0.90;0.90;;;;;;;25.58;56.24;97051.28;5055543;28;20200;-27
2023/07/26 04:12:34;;;;;;;0.87;0.87;;;;;;;25.57;55.87;97053.84;5052949;28;20879;-27
2023/07/26 04:15:01;;;;;;;0.80;0.80;;;;;;;25.60;56.18;97057.31;5060607;28;20197;-27
2023/07/26 04:17:27;;;;;;;0.80;0.80;;;;;;;25.62;56.14;97065.03;5064968;28;20196;-27
2023/07/26 04:19:54;;;;;;;0.80;0.80;;;;;;;25.62;55.73;97073.63;5072309;28;20257;-27
2023/07/26 04:22:20;;;;;;;1.20;1.10;;;;;;;25.61;55.79;97071.88;5071783;28;20261;-27
2023/07/26 04:24:47;;;;;;;0.97;0.97;;;;;;;25.62;55.65;97070.19;5065046;28;20257;-27
2023/07/26 04:27:14;;;;;;;1.20;1.10;;;;;;;25.62;55.66;97070.19;5085356;28;20220;-27
2023/07/26 04:29:40;;;;;;;4.20;2.23;;;;;;;25.62;54.90;97072.75;5066685;28;20239;-27
2023/07/26 04:32:07;;;;;;;4.63;2.53;;;;;;;25.58;54.60;97073.59;5061570;28;20220;-27
2023/07/26 04:34:34;;;;;;;2.50;2.30;;;;;;;25.59;54.52;97086.47;5063147;28;20208;-27
2023/07/26 04:37:00;;;;;;;6.28;2.17;;;;;;;25.58;55.04;97091.63;5068492;28;20592;-27
2023/07/26 04:39:27;;;;;;;3.60;2.10;;;;;;;25.58;55.07;97084.72;5070130;28;20219;-27
2023/07/26 04:41:53;;;;;;;3.77;2.13;;;;;;;25.56;54.93;97088.16;5058808;28;20205;-27
2023/07/26 04:44:20;;;;;;;2.17;1.97;;;;;;;25.56;55.17;97090.72;5060380;28;20206;-28
2023/07/26 04:46:48;;;;;;;4.50;2.13;;;;;;;25.59;55.15;97093.31;5059174;28;20281;-34
2023/07/26 04:49:14;;;;;;;3.50;2.35;;;;;;;25.57;55.29;97085.59;5065013;28;20209;-28
2023/07/26 04:51:41;;;;;;;2.53;2.03;;;;;;;25.56;55.10;97094.19;5076682;28;20220;-41
2023/07/26 04:54:08;;;;;;;4.07;2.23;;;;;;;25.58;55.12;97091.63;5059961;28;20235;-27
2023/07/26 04:56:34;;;;;;;2.03;1.80;;;;;;;25.53;54.89;97085.56;5074379;28;20285;-27
2023/07/26 04:59:01;;;;;;;2.47;2.27;;;;;;;25.60;55.02;97100.19;5071419;28;20207;-27
2023/07/26 05:01:27;;;;;;;2.33;2.10;;;;;;;25.59;55.09;97098.47;5063938;28;20582;-27
2023/07/26 05:03:54;;;;;;;2.77;2.47;;;;;;;25.59;54.79;97107.06;5058897;28;20280;-27
2023/07/26 05:06:21;;;;;;;2.97;2.17;;;;;;;25.59;54.55;97114.78;5068509;28;20718;-27
2023/07/26 05:08:47;;;;;;;2.73;2.30;;;;;;;25.49;55.03;97096.69;5060594;28;20281;-27
2023/07/26 05:11:14;;;;;;;2.25;2.05;;;;;;;25.60;54.61;97119.06;5067219;28;20193;-27
2023/07/26 05:13:41;;;;;;;2.90;2.27;;;;;;;25.60;54.51;97116.50;5067419;28;20224;-27
2023/07/26 05:16:07;;;;;;;2.73;2.33;;;;;;;25.59;54.56;97112.22;5056768;28;20217;-27
2023/07/26 05:18:34;;;;;;;2.50;2.30;;;;;;;25.61;54.72;97114.78;5080172;28;20578;-27
2023/07/26 05:21:01;;;;;;;2.77;2.03;;;;;;;25.61;54.56;97120.78;5067739;28;20201;-27
2023/07/26 05:23:27;;;;;;;3.93;2.30;;;;;;;25.62;54.63;97121.66;5073416;28;20201;-27
2023/07/26 05:25:54;;;;;;;2.72;2.15;;;;;;;25.61;54.62;97123.34;5078072;28;20642;-27
2023/07/26 05:28:21;;;;;;;2.87;2.63;;;;;;;25.62;54.54;97124.22;5071373;28;20200;-29
2023/07/26 05:30:49;;;;;;;2.60;2.20;;;;;;;25.63;54.42;97125.94;5062757;28;20669;-27
2023/07/26 05:33:16;;;;;;;3.03;2.50;;;;;;;25.63;54.15;97138.81;5068386;28;20612;-28
2023/07/26 05:35:42;;;;;;;2.95;2.40;;;;;;;25.63;54.09;97133.66;5066761;28;20312;-27
2023/07/26 05:38:09;;;;;;;5.43;2.78;;;;;;;25.63;54.37;97134.53;5068072;28;20192;-27
2023/07/26 05:40:36;;;;;;;4.27;2.60;;;;;;;25.63;54.12;97139.69;5079637;28;20488;-27
2023/07/26 05:43:02;;;;;;;3.47;2.47;;;;;;;25.64;54.17;97137.97;5070165;28;20237;-27
2023/07/26 05:45:29;;;;;;;2.40;2.20;;;;;;;25.60;54.21;97126.78;5073633;28;20577;-28
2023/07/26 05:47:56;;;;;;;2.87;2.57;;;;;;;25.64;54.25;97135.41;5079784;28;20199;-28
2023/07/26 05:50:22;;;;;;;8.63;2.90;;;;;;;25.64;54.20;97141.41;5069785;28;20209;-27
2023/07/26 05:52:51;;;;;;;2.83;2.50;;;;;;;25.64;54.30;97145.69;5070110;28;20211;-27
2023/07/26 05:55:18;;;;;;;3.53;2.20;;;;;;;25.64;54.37;97145.69;5074466;28;20236;-27
2023/07/26 05:57:44;;;;;;;4.30;2.50;;;;;;;25.63;52.11;97157.69;5077684;28;20253;-27
2023/07/26 06:00:13;;;;;;;4.17;2.80;;;;;;;25.61;51.84;97156.81;5067414;28;20650;-27
2023/07/26 06:02:40;;;;;;;3.83;2.47;;;;;;;25.63;52.78;97154.25;5069204;28;20284;-27
2023/07/26 06:05:08;;;;;;;3.37;2.60;;;;;;;25.63;53.31;97156.81;5061920;28;20193;-31
2023/07/26 06:07:35;;;;;;;5.40;2.73;;;;;;;25.60;53.44;97156.81;5082252;28;20203;-27
2023/07/26 06:10:01;;;;;;;4.27;2.60;;;;;;;25.62;53.44;97163.72;5078489;28;20203;-31
2023/07/26 06:12:28;;;;;;;3.33;2.50;;;;;;;25.63;53.45;97170.56;5084845;28;20264;-27
2023/07/26 06:14:55;;;;;;;2.65;2.45;;;;;;;25.64;53.57;97167.13;5082551;28;20242;-27
2023/07/26 06:17:21;;;;;;;4.10;2.40;;;;;;;25.63;53.84;97170.56;5063108;28;20209;-34
2023/07/26 06:19:48;;;;;;;4.10;2.13;;;;;;;25.60;53.78;97165.41;5057453;28;20196;-27
2023/07/26 06:22:15;;;;;;;3.97;2.27;;;;;;;25.64;53.97;97176.59;5085197;28;20248;-27
2023/07/26 06:24:41;;;;;;;3.73;2.40;;;;;;;25.64;53.90;97176.59;5085566;28;20620;-27
2023/07/26 06:27:08;;;;;;;2.50;2.17;;;;;;;25.63;54.26;97183.44;5078961;28;20667;-27
2023/07/26 06:29:36;;;;;;;4.07;2.20;;;;;;;25.64;54.31;97187.72;5073125;28;20201;-27
2023/07/26 06:32:04;;;;;;;2.30;2.10;;;;;;;25.64;54.32;97185.16;5076340;28;20241;-27
2023/07/26 06:34:30;;;;;;;3.33;2.00;;;;;;;25.64;54.21;97189.47;5081292;28;20287;-34
2023/07/26 06:36:57;;;;;;;2.60;2.30;;;;;;;25.65;54.13;97186.03;5067472;28;20223;-29
2023/07/26 06:39:26;;;;;;;2.43;2.10;;;;;;;25.67;54.05;97195.50;5073208;28;20265;-27
2023/07/26 06:41:53;;;;;;;4.10;2.50;;;;;;;25.65;52.36;97199.75;5072715;28;20206;-27
2023/07/26 06:44:20;;;;;;;9.02;2.60;;;;;;;25.65;52.85;97196.31;5073447;28;20196;-27
2023/07/26 06:46:46;;;;;;;2.97;2.30;;;;;;;25.64;52.97;97181.75;5068537;28;20220;-27
2023/07/26 06:49:13;;;;;;;2.83;2.10;;;;;;;25.64;53.50;97190.28;5072571;28;20218;-27
2023/07/26 06:51:39;;;;;;;3.37;2.27;;;;;;;25.67;53.81;97194.63;5069058;28;20193;-28
2023/07/26 06:54:06;;;;;;;2.67;2.27;;;;;;;25.67;53.51;97204.94;5074759;28;20215;-27
2023/07/26 06:56:33;;;;;;;2.73;2.00;;;;;;;25.66;53.66;97195.47;5060880;28;20227;-27
2023/07/26 06:59:01;;;;;;;2.53;2.10;;;;;;;25.60;53.93;97191.13;5082600;28;20203;-27
2023/07/26 07:01:27;;;;;;;2.65;2.13;;;;;;;25.65;53.86;97199.75;5065467;28;20204;-27
2023/07/26 07:03:54;;;;;;;3.03;2.00;;;;;;;25.66;54.02;97198.91;5061379;28;20228;-27
2023/07/26 07:06:38;;;;;;;2.33;2.03;;;;;;;25.65;54.21;97209.19;5070606;28;20227;-27
2023/07/26 07:09:05;;;;;;;5.30;2.30;;;;;;;25.67;54.18;97210.94;5071029;28;20207;-27
2023/07/26 07:11:31;;;;;;;3.77;2.20;;;;;;;25.65;54.47;97204.03;5069192;28;20196;-30
2023/07/26 07:13:59;;;;;;;2.63;2.00;;;;;;;25.67;54.18;97210.06;5071343;28;20212;-27
2023/07/26 07:16:25;;;;;;;3.45;2.05;;;;;;;25.67;54.41;97207.50;5074260;28;20636;-27
2023/07/26 07:18:52;;;;;;;3.47;2.60;;;;;;;25.66;54.11;97209.19;5059985;28;20207;-27
2023/07/26 07:21:18;;;;;;;2.40;2.03;;;;;;;25.67;54.42;97217.78;5083822;28;20233;-32
2023/07/26 07:23:47;;;;;;;2.20;1.97;;;;;;;25.67;54.51;97208.38;5075487;28;20713;-27
2023/07/26 07:26:14;;;;;;;2.70;1.88;;;;;;;25.67;54.35;97208.38;5070926;28;20293;-27
2023/07/26 07:28:40;;;;;;;2.27;1.90;;;;;;;25.67;54.45;97199.78;5081907;28;20262;-27
2023/07/26 07:31:07;;;;;;;2.10;1.90;;;;;;;25.67;54.52;97204.94;5077744;28;20223;-33
2023/07/26 07:33:34;;;;;;;2.63;1.80;;;;;;;25.67;54.54;97203.22;5074566;28;20682;-27
2023/07/26 07:36:01;;;;;;;4.80;2.17;;;;;;;25.68;54.60;97201.50;5067239;28;20219;-27
2023/07/26 07:38:27;;;;;;;2.75;1.80;;;;;;;25.69;54.21;97206.66;5081464;28;20215;-27
2023/07/26 07:40:54;;;;;;;3.10;2.10;;;;;;;25.69;54.54;97203.25;5080953;28;20254;-27
2023/07/26 07:43:21;;;;;;;2.08;1.90;;;;;;;25.69;54.82;97187.78;5083349;28;20206;-27
2023/07/26 07:45:47;;;;;;;4.73;1.93;;;;;;;25.69;54.82;97198.94;5077463;28;20823;-27
2023/07/26 07:48:14;;;;;;;2.10;1.90;;;;;;;25.70;54.70;97204.94;5069237;28;20239;-27
2023/07/26 07:50:41;;;;;;;2.20;1.97;;;;;;;25.69;54.80;97200.66;5074727;28;20206;-27
2023/07/26 07:53:09;;;;;;;3.53;2.10;;;;;;;25.70;54.57;97199.81;5067293;28;20221;-27
2023/07/26 07:55:38;;;;;;;2.57;1.80;;;;;;;25.70;54.45;97199.81;5082090;28;20227;-27
2023/07/26 07:58:05;;;;;;;1.88;1.70;;;;;;;25.67;54.98;97192.94;5080592;28;20195;-27
2023/07/26 08:00:32;;;;;;;1.70;1.57;;;;;;;25.69;54.79;97192.94;5064461;28;20207;-27
2023/07/26 08:02:58;;;;;;;3.33;1.70;;;;;;;25.67;54.66;97187.78;5064986;28;20615;-31
2023/07/26 08:05:25;;;;;;;2.83;2.08;;;;;;;25.48;54.86;97161.84;5058973;28;20222;-27
2023/07/26 08:07:52;;;;;;;1.90;1.67;;;;;;;25.71;54.73;97193.78;5064946;28;20674;-27
2023/07/26 08:10:20;;;;;;;2.00;1.77;;;;;;;25.69;54.91;97196.34;5070818;28;20279;-27
2023/07/26 08:12:46;;;;;;;1.80;1.70;;;;;;;25.70;54.73;97204.94;5059535;28;20363;-27
2023/07/26 08:15:13;;;;;;;1.60;1.50;;;;;;;25.72;54.63;97210.97;5052730;28;20243;-27
2023/07/26 08:17:40;;;;;;;2.13;1.80;;;;;;;25.67;54.91;97205.78;5064142;28;20224;-27
2023/07/26 08:20:07;;;;;;;2.27;1.73;;;;;;;25.68;54.69;97202.38;5075003;28;20720;-27
2023/07/26 08:22:34;;;;;;;1.73;1.63;;;;;;;25.72;55.02;97205.84;5068867;28;20196;-27
2023/07/26 08:25:02;;;;;;;2.17;1.60;;;;;;;25.71;55.15;97214.38;5067459;28;20200;-27
2023/07/26 08:27:29;;;;;;;1.90;1.80;;;;;;;25.73;54.86;97210.13;5059231;28;20203;-27
2023/07/26 08:29:56;;;;;;;2.33;1.80;;;;;;;25.73;54.87;97218.72;5068206;28;20305;-28
2023/07/26 08:32:23;;;;;;;1.70;1.60;;;;;;;25.71;55.02;97209.25;5056666;28;20207;-27
2023/07/26 08:34:49;;;;;;;2.07;1.87;;;;;;;25.72;55.01;97205.84;5066604;28;20207;-27
2023/07/26 08:37:18;;;;;;;1.80;1.70;;;;;;;25.70;55.05;97203.25;5066429;28;20221;-27
2023/07/26 08:39:45;;;;;;;1.60;1.50;;;;;;;25.73;54.87;97208.41;5068123;28;20663;-27
2023/07/26 08:42:12;;;;;;;2.13;1.60;;;;;;;25.72;55.10;97198.13;5069236;28;20192;-27
2023/07/26 08:44:38;;;;;;;1.80;1.70;;;;;;;25.74;54.93;97204.13;5035079;28;20200;-27
2023/07/26 08:47:05;;;;;;;1.70;1.60;;;;;;;25.74;55.14;97209.25;5061041;28;20250;-27
2023/07/26 08:49:32;;;;;;;1.70;1.50;;;;;;;25.69;54.76;97198.94;5041331;28;20201;-27
2023/07/26 08:52:01;;;;;;;1.60;1.50;;;;;;;25.73;55.05;97210.13;5062509;28;20673;-27
2023/07/26 08:54:28;;;;;;;1.97;1.60;;;;;;;25.74;54.99;97207.56;5057304;28;20274;-27
2023/07/26 08:56:55;;;;;;;1.57;1.47;;;;;;;25.74;54.77;97210.13;5074540;28;20221;-27
2023/07/26 08:59:22;;;;;;;1.70;1.60;;;;;;;25.72;54.93;97200.69;5072520;28;20563;-27
2023/07/26 09:01:48;;;;;;;1.67;1.58;;;;;;;25.74;55.09;97210.13;5066463;28;20205;-27
2023/07/26 09:04:29;;;;;;;1.70;1.60;;;;;;;25.75;55.13;97209.28;5061632;28;20200;-27
2023/07/26 09:07:00;;;;;;;2.08;1.60;;;;;;;25.75;54.89;97214.41;5058720;28;20695;-27
2023/07/26 09:09:27;;;;;;;2.70;1.60;;;;;;;25.72;54.76;97205.84;5070075;28;20204;-27
2023/07/26 09:11:54;;;;;;;2.20;1.50;;;;;;;25.74;55.17;97207.56;5068652;28;20235;-27
2023/07/26 09:14:26;;;;;;;1.60;1.50;;;;;;;25.76;54.83;97211.03;5076244;28;20220;-28
2023/07/26 09:16:59;;;;;;;1.70;1.60;;;;;;;25.77;54.83;97211.84;5061114;28;20221;-28
2023/07/26 09:19:33;;;;;;;1.65;1.55;;;;;;;25.75;54.97;97206.69;5086913;28;20199;-27
2023/07/26 09:22:03;;;;;;;1.50;1.40;;;;;;;25.75;55.34;97206.69;5067905;28;20204;-27
2023/07/26 09:24:33;;;;;;;1.50;1.40;;;;;;;25.75;54.92;97203.28;5066317;28;20208;-27
2023/07/26 09:27:04;;;;;;;1.70;1.60;;;;;;;25.73;54.99;97200.69;5068835;28;20474;-27
2023/07/26 09:29:31;;;;;;;1.50;1.40;;;;;;;25.68;55.06;97199.78;5081250;28;20615;-27
2023/07/26 09:31:58;;;;;;;1.70;1.60;;;;;;;25.73;55.26;97203.28;5063450;28;20201;-27
2023/07/26 09:34:24;;;;;;;1.48;1.38;;;;;;;25.74;55.02;97204.97;5075714;28;20215;-27
2023/07/26 09:36:51;;;;;;;1.45;1.38;;;;;;;25.75;55.18;97203.28;5075344;28;20220;-29
2023/07/26 09:39:25;;;;;;;1.60;1.50;;;;;;;25.76;54.77;97217.88;5078727;28;20191;-27
2023/07/26 09:42:08;;;;;;;1.60;1.50;;;;;;;25.76;54.94;97205.00;5070108;28;20200;-27
2023/07/26 09:44:36;;;;;;;1.67;1.58;;;;;;;25.76;55.01;97205.88;5082295;28;20203;-27
2023/07/26 09:47:02;;;;;;;1.50;1.40;;;;;;;25.75;54.83;97200.72;5073250;28;20227;-27
2023/07/26 09:49:29;;;;;;;1.73;1.63;;;;;;;25.73;55.31;97198.13;5073177;28;20235;-30
2023/07/26 09:51:57;;;;;;;1.60;1.50;;;;;;;25.75;55.14;97198.13;5069595;28;20685;-27
2023/07/26 09:54:32;;;;;;;1.50;1.40;;;;;;;25.75;54.99;97198.13;5073470;28;20658;-27
2023/07/26 09:57:00;;;;;;;1.53;1.43;;;;;;;25.73;55.05;97197.25;5071482;28;20228;-27
2023/07/26 09:59:28;;;;;;;1.40;1.30;;;;;;;25.72;55.15;97196.38;5067837;28;20212;-27
2023/07/26 10:01:56;;;;;;;1.70;1.60;;;;;;;25.73;55.31;97195.56;5066841;28;20201;-27
2023/07/26 10:04:27;;;;;;;3.60;1.50;;;;;;;25.74;55.24;97186.97;5076719;28;20227;-27
2023/07/26 10:06:55;;;;;;;1.55;1.45;;;;;;;25.73;55.16;97194.69;5078918;28;20220;-27
2023/07/26 10:09:23;;;;;;;1.60;1.40;;;;;;;25.73;55.03;97184.38;5060474;28;20209;-27
2023/07/26 10:11:49;;;;;;;1.50;1.40;;;;;;;25.73;55.23;97182.69;5074114;28;20197;-27
2023/07/26 10:14:16;;;;;;;1.73;1.55;;;;;;;25.71;55.20;97179.22;5066288;28;20220;-27
2023/07/26 10:16:42;;;;;;;1.60;1.50;;;;;;;25.71;55.36;97171.50;5069406;28;20274;-27
2023/07/26 10:19:10;;;;;;;1.50;1.40;;;;;;;25.73;55.29;97167.22;5048016;28;20250;-27
2023/07/26 10:21:36;;;;;;;1.60;1.50;;;;;;;25.73;55.50;97168.94;5059635;28;20247;-27
2023/07/26 10:24:04;;;;;;;1.50;1.40;;;;;;;25.73;55.47;97169.81;5080186;28;20600;-27
2023/07/26 10:26:34;;;;;;;1.63;1.53;;;;;;;25.71;55.52;97163.78;5060955;28;20235;-27
2023/07/26 10:29:01;;;;;;;1.55;1.45;;;;;;;25.74;55.22;97165.50;5071619;28;20598;-27
2023/07/26 10:31:31;;;;;;;1.40;1.30;;;;;;;25.72;55.09;97156.94;5051532;28;20215;-27
2023/07/26 10:33:58;;;;;;;1.60;1.50;;;;;;;25.70;55.43;97163.75;5071162;28;20228;-27
2023/07/26 10:36:29;;;;;;;1.87;1.40;;;;;;;25.71;55.47;97165.47;5080979;28;20222;-27
2023/07/26 10:39:00;;;;;;;1.42;1.35;;;;;;;25.71;55.21;97163.78;5069276;28;20221;-28
2023/07/26 10:41:28;;;;;;;1.50;1.40;;;;;;;25.71;55.51;97163.78;5048791;28;20620;-27
2023/07/26 10:44:08;;;;;;;1.60;1.50;;;;;;;25.71;55.28;97158.63;5073189;28;20674;-27
2023/07/26 10:47:03;;;;;;;1.50;1.40;;;;;;;25.71;55.56;97163.78;5074605;28;20220;-27
2023/07/26 10:49:31;;;;;;;1.70;1.60;;;;;;;25.71;55.13;97161.19;5070230;28;20227;-34
2023/07/26 10:51:59;;;;;;;1.40;1.30;;;;;;;25.73;55.19;97161.22;5067712;28;20207;-27
2023/07/26 10:54:32;;;;;;;1.60;1.50;;;;;;;25.72;55.00;97152.63;5086444;28;20668;-27
2023/07/26 10:57:28;;;;;;;1.20;1.20;;;;;;;25.72;55.18;97162.91;5087393;28;20724;-27
2023/07/26 10:59:58;;;;;;;1.60;1.50;;;;;;;25.72;55.52;97162.91;5077381;28;20576;-28
2023/07/26 11:02:43;;;;;;;1.33;1.27;;;;;;;25.73;55.41;97161.22;5076737;28;20651;-28
2023/07/26 11:05:11;;;;;;;1.77;1.67;;;;;;;25.72;55.44;97151.78;5074966;28;20633;-27
2023/07/26 11:07:47;;;;;;;1.48;1.38;;;;;;;25.71;55.32;97174.06;5063958;28;20236;-27
2023/07/26 11:10:20;;;;;;;1.50;1.40;;;;;;;25.72;55.28;97185.25;5088648;28;20698;-27
2023/07/26 11:13:04;;;;;;;1.55;1.45;;;;;;;25.72;55.33;97190.38;5059390;28;20201;-27
2023/07/26 11:15:30;;;;;;;1.58;1.45;;;;;;;25.71;55.09;97210.09;5057526;28;20235;-27
2023/07/26 11:18:18;;;;;;;1.40;1.30;;;;;;;25.72;55.58;97222.13;5067293;28;20203;-27
2023/07/26 11:20:46;;;;;;;1.48;1.38;;;;;;;25.72;55.25;97229.00;5063408;28;20201;-27
2023/07/26 11:23:18;;;;;;;1.43;1.33;;;;;;;25.72;55.15;97229.84;5068772;28;20192;-27
2023/07/26 11:25:46;;;;;;;1.20;1.20;;;;;;;25.71;55.57;97227.25;5074729;28;20361;-33
2023/07/26 11:28:12;;;;;;;1.67;1.50;;;;;;;25.72;55.34;97231.56;5057733;28;20285;-27
2023/07/26 11:30:41;;;;;;;1.30;1.30;;;;;;;25.71;55.30;97229.84;5063968;28;20200;-27
2023/07/26 11:33:09;;;;;;;1.52;1.42;;;;;;;25.56;55.48;97203.97;5075080;28;20582;-27
2023/07/26 11:35:40;;;;;;;1.40;1.30;;;;;;;25.72;55.34;97232.41;5061696;28;20300;-27
2023/07/26 11:38:07;;;;;;;1.40;1.30;;;;;;;25.70;55.51;97228.13;5064830;28;20200;-27